Time;durP1;ratioP1;P1;durP2;ratioP2;P2;SDS_P1;SDS_P2;PMS_P1;PMS_P2;Temp;Humidity;BMP_temperature;BMP_pressure;BME280_temperature;BME280_humidity;BME280_pressure;Samples;Min_cycle;Max_cycle;Signal;HPM_P1;HPM_P2
2021/05/04 00:00:11;;;;;;;12.63;11.33;;;7.00;99.90;;;;;;5041727;28;20191;-48
2021/05/04 00:02:37;;;;;;;15.07;12.73;;;7.00;99.90;;;;;;5044868;28;20252;-50
2021/05/04 00:05:04;;;;;;;13.53;11.53;;;7.00;99.90;;;;;;5044083;28;20238;-52
2021/05/04 00:07:30;;;;;;;12.40;11.20;;;7.00;99.90;;;;;;5052881;28;20233;-47
2021/05/04 00:09:56;;;;;;;13.93;12.47;;;7.00;99.90;;;;;;5043719;28;20257;-53
2021/05/04 00:12:23;;;;;;;20.40;11.93;;;7.00;99.90;;;;;;5057550;28;20229;-49
2021/05/04 00:14:50;;;;;;;12.30;11.10;;;7.00;99.90;;;;;;5065340;28;20214;-51
2021/05/04 00:17:16;;;;;;;13.60;11.73;;;7.00;99.90;;;;;;5062324;28;20190;-48
2021/05/04 00:19:43;;;;;;;13.03;11.60;;;7.00;99.90;;;;;;5065268;28;20549;-48
2021/05/04 00:22:09;;;;;;;12.40;11.17;;;7.00;99.90;;;;;;5039979;28;20223;-50
2021/05/04 00:24:35;;;;;;;12.03;10.90;;;7.00;99.90;;;;;;5062068;28;20190;-48
2021/05/04 00:27:01;;;;;;;14.77;11.33;;;7.00;99.90;;;;;;5056134;28;20283;-55
2021/05/04 00:29:29;;;;;;;14.17;10.87;;;7.00;99.90;;;;;;5063573;28;20197;-50
2021/05/04 00:31:55;;;;;;;13.90;12.43;;;7.00;99.90;;;;;;5055331;28;20261;-54
2021/05/04 00:34:21;;;;;;;13.93;11.00;;;7.00;99.90;;;;;;5054243;28;20990;-46
2021/05/04 00:36:47;;;;;;;11.83;10.73;;;7.00;99.90;;;;;;5048359;28;20207;-49
2021/05/04 00:39:13;;;;;;;12.73;11.37;;;7.00;99.90;;;;;;5052983;28;20182;-49
2021/05/04 00:41:39;;;;;;;11.10;9.83;;;7.00;99.90;;;;;;5053839;28;20340;-48
2021/05/04 00:44:06;;;;;;;13.43;12.03;;;7.10;99.90;;;;;;5041971;28;20188;-51
2021/05/04 00:46:33;;;;;;;11.17;10.07;;;7.10;99.90;;;;;;5044346;28;20202;-49
2021/05/04 00:48:59;;;;;;;12.50;10.33;;;7.10;99.90;;;;;;5050259;28;20204;-52
2021/05/04 00:51:25;;;;;;;10.43;9.43;;;7.10;99.90;;;;;;5044564;28;20206;-51
2021/05/04 00:53:52;;;;;;;11.17;10.00;;;7.20;99.90;;;;;;5054135;28;20215;-53
2021/05/04 00:56:19;;;;;;;12.07;9.70;;;7.20;99.90;;;;;;5036926;28;20203;-48
2021/05/04 00:58:48;;;;;;;12.00;10.73;;;7.20;99.90;;;;;;5045048;28;20232;-49
2021/05/04 01:01:14;;;;;;;11.43;9.57;;;7.20;99.90;;;;;;5041362;28;20180;-48
2021/05/04 01:03:41;;;;;;;9.87;8.63;;;7.20;99.90;;;;;;5045353;28;20565;-48
2021/05/04 01:06:07;;;;;;;11.30;9.33;;;7.20;99.90;;;;;;5032356;28;20679;-52
2021/05/04 01:08:33;;;;;;;10.73;9.63;;;7.20;99.90;;;;;;5056195;28;20214;-50
2021/05/04 01:11:00;;;;;;;11.70;10.50;;;7.30;99.90;;;;;;5022255;28;20200;-54
2021/05/04 01:13:26;;;;;;;9.87;8.97;;;7.30;99.90;;;;;;5046279;28;20211;-48
2021/05/04 01:15:53;;;;;;;10.70;9.60;;;7.30;99.90;;;;;;5057086;28;20223;-51
2021/05/04 01:18:19;;;;;;;10.27;9.27;;;7.30;99.90;;;;;;5064567;28;20244;-48
2021/05/04 01:20:49;;;;;;;10.00;9.00;;;7.30;99.90;;;;;;5067937;28;20198;-50
2021/05/04 01:23:15;;;;;;;9.70;8.70;;;7.40;99.90;;;;;;5042414;28;20227;-49
2021/05/04 01:25:41;;;;;;;9.90;8.90;;;7.40;99.90;;;;;;5055904;28;20286;-48
2021/05/04 01:28:07;;;;;;;11.53;10.00;;;7.40;99.90;;;;;;5038888;28;20211;-51
2021/05/04 01:30:33;;;;;;;10.10;9.10;;;7.40;99.90;;;;;;5047098;28;20198;-48
2021/05/04 01:33:00;;;;;;;10.10;8.17;;;7.40;99.90;;;;;;5052448;28;20221;-50
2021/05/04 01:35:27;;;;;;;10.23;9.10;;;7.40;99.90;;;;;;5061623;28;20217;-48
2021/05/04 01:37:54;;;;;;;11.17;8.70;;;7.50;99.90;;;;;;5050549;28;20628;-52
2021/05/04 01:40:21;;;;;;;9.60;8.63;;;7.40;99.90;;;;;;5056638;28;20232;-48
2021/05/04 01:42:47;;;;;;;9.40;8.50;;;7.40;99.90;;;;;;5068422;28;20573;-50
2021/05/04 01:45:14;;;;;;;10.13;9.23;;;7.30;99.90;;;;;;5041945;28;20188;-50
2021/05/04 01:47:41;;;;;;;11.03;9.43;;;7.40;99.90;;;;;;5047757;28;20657;-48
2021/05/04 01:50:08;;;;;;;9.73;8.80;;;7.40;99.90;;;;;;5044370;28;20562;-53
2021/05/04 01:52:34;;;;;;;9.30;8.40;;;7.30;99.90;;;;;;5047499;28;20211;-48
2021/05/04 01:55:02;;;;;;;9.40;8.43;;;7.30;99.90;;;;;;5041889;28;20218;-54
2021/05/04 01:57:29;;;;;;;9.80;8.80;;;7.30;99.90;;;;;;5051117;28;20187;-50
2021/05/04 01:59:55;;;;;;;11.90;8.23;;;7.30;99.90;;;;;;5042256;28;20722;-53
2021/05/04 02:02:21;;;;;;;9.10;8.20;;;7.30;99.90;;;;;;5051761;28;20904;-48
2021/05/04 02:04:47;;;;;;;8.90;8.00;;;7.30;99.90;;;;;;5059187;28;20191;-48
2021/05/04 02:07:13;;;;;;;9.77;8.77;;;7.30;99.90;;;;;;5063288;28;20871;-48
2021/05/04 02:09:39;;;;;;;9.43;8.47;;;7.30;99.90;;;;;;5050660;28;20202;-48
2021/05/04 02:12:07;;;;;;;9.73;8.13;;;7.30;99.90;;;;;;5056616;28;20253;-53
2021/05/04 02:14:33;;;;;;;9.20;8.30;;;7.30;99.90;;;;;;5057736;28;20219;-51
2021/05/04 02:16:59;;;;;;;8.43;7.63;;;7.20;99.90;;;;;;5045629;28;20279;-48
2021/05/04 02:19:25;;;;;;;9.10;8.20;;;7.20;99.90;;;;;;5044175;28;20191;-52
2021/05/04 02:21:51;;;;;;;8.53;7.73;;;7.20;99.90;;;;;;5045552;28;20287;-49
2021/05/04 02:24:18;;;;;;;10.37;8.20;;;7.20;99.90;;;;;;5041560;28;20789;-50
2021/05/04 02:26:44;;;;;;;8.53;7.67;;;7.20;99.90;;;;;;5056360;28;20624;-48
2021/05/04 02:29:11;;;;;;;9.17;8.03;;;7.20;99.90;;;;;;5055043;28;20186;-51
2021/05/04 02:31:37;;;;;;;8.60;7.80;;;7.20;99.90;;;;;;5058672;28;20218;-50
2021/05/04 02:34:03;;;;;;;9.27;8.30;;;7.10;99.90;;;;;;5055545;28;20224;-48
2021/05/04 02:36:29;;;;;;;8.10;7.37;;;7.10;99.90;;;;;;5065762;28;20194;-49
2021/05/04 02:38:55;;;;;;;8.57;7.67;;;7.10;99.90;;;;;;5065481;28;20198;-54
2021/05/04 02:41:22;;;;;;;8.70;7.90;;;7.10;99.90;;;;;;5043747;28;20230;-48
2021/05/04 02:43:48;;;;;;;9.73;8.03;;;7.10;99.90;;;;;;5054650;28;20215;-49
2021/05/04 02:46:15;;;;;;;8.60;7.67;;;7.00;99.90;;;;;;5037632;28;20317;-50
2021/05/04 02:48:43;;;;;;;9.43;8.50;;;7.00;99.90;;;;;;5054371;28;20286;-48
2021/05/04 02:51:11;;;;;;;8.73;7.83;;;7.00;99.90;;;;;;5063084;28;20190;-53
2021/05/04 02:53:38;;;;;;;8.67;7.90;;;7.00;99.90;;;;;;5066798;28;20218;-48
2021/05/04 02:56:05;;;;;;;10.13;8.10;;;6.90;99.90;;;;;;5053857;28;20214;-53
2021/05/04 02:58:31;;;;;;;8.93;8.03;;;6.90;99.90;;;;;;5054793;28;20198;-48
2021/05/04 03:00:57;;;;;;;8.63;7.83;;;7.00;99.90;;;;;;5046357;28;20199;-52
2021/05/04 03:03:25;;;;;;;8.47;7.57;;;6.90;99.90;;;;;;5058806;28;20223;-49
2021/05/04 03:05:52;;;;;;;8.37;7.53;;;7.00;99.90;;;;;;5056296;28;20657;-53
2021/05/04 03:08:19;;;;;;;7.40;6.80;;;7.00;99.90;;;;;;5063095;28;20243;-48
2021/05/04 03:10:45;;;;;;;10.40;7.47;;;7.00;99.90;;;;;;5066113;28;20199;-48
2021/05/04 03:13:12;;;;;;;7.93;7.23;;;7.00;99.90;;;;;;5043847;28;20207;-49
2021/05/04 03:15:38;;;;;;;7.17;6.33;;;7.00;99.90;;;;;;5054452;28;20210;-48
2021/05/04 03:18:04;;;;;;;7.70;6.73;;;7.10;99.90;;;;;;5053883;28;20206;-48
2021/05/04 03:20:31;;;;;;;7.87;7.17;;;7.10;99.90;;;;;;5054608;28;20199;-51
2021/05/04 03:22:57;;;;;;;7.37;6.67;;;7.10;99.90;;;;;;5056021;28;20223;-52
2021/05/04 03:25:24;;;;;;;8.40;7.10;;;7.10;99.90;;;;;;5063480;28;20210;-49
2021/05/04 03:27:51;;;;;;;7.80;7.03;;;7.10;99.90;;;;;;5064706;28;20194;-53
2021/05/04 03:30:17;;;;;;;7.47;6.70;;;7.10;99.90;;;;;;5042138;28;20199;-53
2021/05/04 03:32:44;;;;;;;7.93;7.10;;;7.10;99.90;;;;;;5055384;28;20233;-48
2021/05/04 03:35:11;;;;;;;9.33;7.10;;;7.10;99.90;;;;;;5061113;28;20220;-49
2021/05/04 03:37:38;;;;;;;6.53;5.93;;;7.10;99.90;;;;;;5065709;28;20239;-49
2021/05/04 03:40:05;;;;;;;7.80;6.37;;;7.20;99.90;;;;;;5062037;28;20652;-52
2021/05/04 03:42:31;;;;;;;7.00;6.40;;;7.20;99.90;;;;;;5065805;28;20203;-52
2021/05/04 03:44:58;;;;;;;9.13;7.80;;;7.20;99.90;;;;;;5042947;28;20206;-52
2021/05/04 03:47:24;;;;;;;6.80;5.97;;;7.20;99.90;;;;;;5040620;28;20434;-49
2021/05/04 03:49:50;;;;;;;7.83;6.27;;;7.20;99.90;;;;;;5046910;28;20233;-52
2021/05/04 03:52:16;;;;;;;7.63;6.87;;;7.20;99.90;;;;;;5052984;28;20213;-48
2021/05/04 03:54:44;;;;;;;5.87;5.43;;;7.30;99.90;;;;;;5065733;28;20226;-48
2021/05/04 03:57:10;;;;;;;5.47;4.97;;;7.30;99.90;;;;;;5061547;28;20221;-47
2021/05/04 03:59:36;;;;;;;5.40;4.90;;;7.30;99.90;;;;;;5043167;28;20211;-47
2021/05/04 04:02:03;;;;;;;5.60;5.03;;;7.40;99.90;;;;;;5034436;28;20227;-53
2021/05/04 04:04:29;;;;;;;5.30;4.90;;;7.40;99.90;;;;;;5046734;28;20199;-50
2021/05/04 04:06:55;;;;;;;5.90;5.07;;;7.50;99.90;;;;;;5043937;28;20602;-50
2021/05/04 04:09:22;;;;;;;5.37;4.97;;;7.50;99.90;;;;;;5042560;28;20183;-50
2021/05/04 04:11:49;;;;;;;5.37;4.70;;;7.50;99.90;;;;;;5028429;28;20675;-52
2021/05/04 04:14:15;;;;;;;5.60;5.10;;;7.60;99.90;;;;;;5015102;28;20218;-49
2021/05/04 04:16:41;;;;;;;5.63;5.13;;;7.60;99.90;;;;;;5055974;28;20695;-49
2021/05/04 04:19:08;;;;;;;5.70;5.03;;;7.70;99.90;;;;;;5035950;28;20232;-54
2021/05/04 04:21:34;;;;;;;4.73;4.10;;;7.70;99.90;;;;;;5045205;28;20191;-50
2021/05/04 04:24:01;;;;;;;4.60;4.20;;;7.70;99.90;;;;;;5043001;28;20198;-53
2021/05/04 04:26:27;;;;;;;4.13;3.73;;;7.70;99.90;;;;;;5044053;28;20193;-50
2021/05/04 04:28:54;;;;;;;6.23;4.50;;;7.70;99.90;;;;;;5044483;28;20195;-51
2021/05/04 04:31:20;;;;;;;5.47;4.23;;;7.80;99.90;;;;;;5031390;28;20223;-49
2021/05/04 04:33:46;;;;;;;4.70;4.20;;;7.80;99.90;;;;;;5050715;28;20222;-51
2021/05/04 04:36:13;;;;;;;4.80;4.33;;;7.90;99.90;;;;;;5034318;28;20215;-49
2021/05/04 04:38:39;;;;;;;4.40;4.10;;;7.90;99.90;;;;;;5043354;28;20211;-51
2021/05/04 04:41:05;;;;;;;4.33;3.93;;;7.90;99.90;;;;;;5046897;28;20437;-49
2021/05/04 04:43:31;;;;;;;5.10;4.60;;;7.90;99.90;;;;;;5045892;28;20701;-52
2021/05/04 04:45:58;;;;;;;4.60;4.07;;;7.90;99.90;;;;;;5033218;28;20997;-50
2021/05/04 04:48:24;;;;;;;4.57;4.17;;;7.90;99.90;;;;;;5055900;28;20255;-49
2021/05/04 04:50:50;;;;;;;4.40;3.90;;;7.90;99.90;;;;;;5044063;28;20567;-51
2021/05/04 04:53:16;;;;;;;4.10;3.80;;;7.90;99.90;;;;;;5049175;28;20215;-50
2021/05/04 04:55:43;;;;;;;5.50;3.87;;;8.00;99.90;;;;;;5045698;28;20278;-53
2021/05/04 04:58:09;;;;;;;4.33;3.87;;;8.00;99.90;;;;;;5045095;28;20972;-51
2021/05/04 05:00:35;;;;;;;3.97;3.63;;;8.10;99.90;;;;;;5045947;28;20208;-52
2021/05/04 05:03:02;;;;;;;3.50;3.20;;;8.10;99.90;;;;;;5044618;28;20222;-52
2021/05/04 05:05:28;;;;;;;4.10;3.80;;;8.10;99.90;;;;;;5050991;28;20677;-49
2021/05/04 05:07:54;;;;;;;5.10;4.10;;;8.20;99.90;;;;;;5064053;28;20190;-49
2021/05/04 05:10:21;;;;;;;4.13;3.73;;;8.20;99.90;;;;;;5068797;28;20194;-48
2021/05/04 05:12:47;;;;;;;3.40;3.13;;;8.20;99.90;;;;;;5034394;28;20227;-53
2021/05/04 05:15:14;;;;;;;6.00;4.20;;;8.30;99.90;;;;;;5047900;28;20234;-48
2021/05/04 05:17:40;;;;;;;4.43;4.07;;;8.30;99.90;;;;;;5036551;28;20215;-52
2021/05/04 05:20:09;;;;;;;4.90;4.00;;;8.30;99.90;;;;;;5047907;28;20203;-51
2021/05/04 05:22:35;;;;;;;4.33;3.93;;;8.30;99.90;;;;;;5047481;28;20207;-49
2021/05/04 05:25:02;;;;;;;6.10;4.10;;;8.30;99.90;;;;;;5027284;28;20188;-48
2021/05/04 05:27:30;;;;;;;4.67;4.23;;;8.20;99.90;;;;;;5047790;28;20191;-48
2021/05/04 05:29:56;;;;;;;4.33;3.90;;;8.20;99.90;;;;;;5039799;28;20855;-53
2021/05/04 05:32:22;;;;;;;4.53;3.63;;;8.20;99.90;;;;;;5041149;28;20757;-50
2021/05/04 05:34:49;;;;;;;5.30;3.77;;;8.20;99.90;;;;;;5052221;28;20222;-48
2021/05/04 05:37:15;;;;;;;4.33;3.93;;;8.20;99.90;;;;;;5042424;28;20214;-50
2021/05/04 05:39:42;;;;;;;6.60;4.60;;;8.20;99.90;;;;;;5045309;28;20198;-51
2021/05/04 05:42:09;;;;;;;6.60;4.90;;;8.20;99.90;;;;;;5045968;28;20885;-51
2021/05/04 05:44:36;;;;;;;4.80;4.33;;;8.20;99.90;;;;;;5042790;28;20196;-53
2021/05/04 05:47:02;;;;;;;5.30;4.67;;;8.20;99.90;;;;;;5044623;28;20195;-49
2021/05/04 05:49:28;;;;;;;5.37;4.97;;;8.20;99.90;;;;;;5043427;28;20716;-50
2021/05/04 05:51:55;;;;;;;6.67;4.90;;;8.10;99.90;;;;;;5046092;28;20960;-50
2021/05/04 05:54:22;;;;;;;6.33;4.37;;;8.10;99.90;;;;;;5047592;28;20278;-48
2021/05/04 05:56:48;;;;;;;5.30;4.80;;;8.10;99.90;;;;;;5044099;28;20271;-51
2021/05/04 05:59:15;;;;;;;6.10;5.10;;;8.10;99.90;;;;;;5043530;28;20231;-47
2021/05/04 06:01:41;;;;;;;5.83;4.20;;;8.10;99.90;;;;;;5045016;28;20559;-52
2021/05/04 06:04:07;;;;;;;4.87;4.50;;;8.10;99.90;;;;;;5041811;28;20195;-47
2021/05/04 06:06:33;;;;;;;5.93;4.60;;;8.10;99.90;;;;;;5053806;28;21065;-52
2021/05/04 06:08:59;;;;;;;5.03;4.63;;;8.10;99.90;;;;;;5042621;28;20197;-48
2021/05/04 06:11:27;;;;;;;4.60;4.17;;;8.10;99.90;;;;;;5059227;28;20761;-50
2021/05/04 06:13:53;;;;;;;4.50;4.10;;;8.10;99.90;;;;;;5028601;28;20222;-47
2021/05/04 06:16:19;;;;;;;4.63;4.03;;;8.10;99.90;;;;;;5045408;28;20220;-47
2021/05/04 06:18:45;;;;;;;4.80;3.90;;;8.10;99.90;;;;;;5032347;28;20295;-53
2021/05/04 06:21:11;;;;;;;4.60;4.27;;;8.10;99.90;;;;;;5061035;28;20595;-48
2021/05/04 06:23:37;;;;;;;3.73;3.43;;;8.10;99.90;;;;;;5051704;28;20766;-50
2021/05/04 06:26:04;;;;;;;3.90;3.53;;;8.20;99.90;;;;;;5054546;28;20978;-50
2021/05/04 06:28:32;;;;;;;4.57;3.53;;;8.20;99.90;;;;;;5052152;28;20210;-49
2021/05/04 06:30:58;;;;;;;3.90;3.57;;;8.20;99.90;;;;;;5044113;28;20195;-47
2021/05/04 06:33:25;;;;;;;6.00;3.70;;;8.20;99.90;;;;;;5051207;28;20236;-48
2021/05/04 06:35:51;;;;;;;3.53;3.23;;;8.30;99.90;;;;;;5037353;28;20625;-50
2021/05/04 06:38:18;;;;;;;3.80;3.50;;;8.30;99.90;;;;;;5042830;28;20188;-47
2021/05/04 06:40:47;;;;;;;4.10;3.70;;;8.30;99.90;;;;;;5050893;28;20287;-50
2021/05/04 06:43:13;;;;;;;4.30;3.90;;;8.30;99.90;;;;;;5046472;28;20307;-48
2021/05/04 06:45:40;;;;;;;4.00;3.70;;;8.30;99.90;;;;;;5041438;28;20675;-53
2021/05/04 06:48:07;;;;;;;4.77;4.30;;;8.30;99.90;;;;;;5049010;28;20191;-48
2021/05/04 06:50:34;;;;;;;4.27;3.80;;;8.30;99.90;;;;;;5038803;28;20737;-52
2021/05/04 06:53:00;;;;;;;4.13;3.83;;;8.30;99.90;;;;;;5043175;28;21047;-50
2021/05/04 06:55:26;;;;;;;5.00;3.43;;;8.40;99.90;;;;;;5039933;28;20224;-49
2021/05/04 06:57:53;;;;;;;5.53;3.53;;;8.40;99.90;;;;;;5036435;28;20199;-50
2021/05/04 07:00:20;;;;;;;4.63;3.53;;;8.50;99.90;;;;;;5052478;28;20195;-49
2021/05/04 07:02:47;;;;;;;4.87;3.80;;;8.50;99.90;;;;;;5035166;28;20248;-49
2021/05/04 07:05:14;;;;;;;4.23;3.83;;;8.60;99.90;;;;;;5051918;28;20236;-49
2021/05/04 07:07:40;;;;;;;4.73;3.73;;;8.70;99.90;;;;;;5041136;28;20218;-52
2021/05/04 07:10:07;;;;;;;4.57;3.57;;;8.80;99.90;;;;;;5054922;28;20214;-47
2021/05/04 07:12:33;;;;;;;4.53;3.80;;;8.80;99.90;;;;;;5041355;28;20569;-50
2021/05/04 07:15:00;;;;;;;3.87;3.57;;;8.90;99.90;;;;;;5036519;28;20218;-50
2021/05/04 07:17:27;;;;;;;3.57;3.30;;;8.90;99.90;;;;;;5040847;28;20210;-49
2021/05/04 07:19:55;;;;;;;3.87;3.50;;;9.00;99.90;;;;;;5036793;28;20263;-50
2021/05/04 07:22:24;;;;;;;3.40;3.10;;;9.00;99.90;;;;;;5033922;28;20660;-52
2021/05/04 07:24:50;;;;;;;3.57;3.27;;;9.10;99.90;;;;;;5037040;28;20243;-49
2021/05/04 07:27:16;;;;;;;3.70;3.40;;;9.10;99.90;;;;;;5053686;28;20203;-48
2021/05/04 07:29:42;;;;;;;3.83;3.10;;;9.10;99.90;;;;;;5048471;28;20225;-49
2021/05/04 07:32:09;;;;;;;4.67;3.67;;;9.10;99.90;;;;;;5040534;28;20224;-47
2021/05/04 07:34:36;;;;;;;3.73;3.43;;;9.00;99.90;;;;;;5028473;28;20576;-53
2021/05/04 07:37:03;;;;;;;4.10;3.30;;;9.00;99.90;;;;;;5043007;28;20206;-52
2021/05/04 07:39:29;;;;;;;4.10;2.60;;;9.00;99.90;;;;;;5065968;28;20710;-47
2021/05/04 07:41:55;;;;;;;4.23;2.80;;;9.10;99.90;;;;;;5045523;28;20222;-49
2021/05/04 07:44:21;;;;;;;2.97;2.70;;;9.10;99.90;;;;;;5055217;28;20191;-50
2021/05/04 07:46:48;;;;;;;3.13;2.80;;;9.10;99.90;;;;;;5046397;28;20217;-53
2021/05/04 07:49:20;;;;;;;3.47;3.10;;;9.10;99.90;;;;;;5026514;28;20658;-51
2021/05/04 07:51:46;;;;;;;3.10;2.60;;;9.10;99.90;;;;;;5033091;28;20699;-53
2021/05/04 07:54:13;;;;;;;3.07;2.77;;;9.20;99.90;;;;;;5043647;28;20577;-49
2021/05/04 07:56:40;;;;;;;2.57;2.37;;;9.20;99.90;;;;;;5034059;28;20188;-52
2021/05/04 07:59:06;;;;;;;3.00;2.40;;;9.20;99.90;;;;;;5032827;28;20293;-50
2021/05/04 08:01:32;;;;;;;3.37;2.40;;;9.30;99.90;;;;;;5036459;28;20282;-53
2021/05/04 08:03:58;;;;;;;2.63;2.43;;;9.30;99.90;;;;;;5033367;28;20245;-47
2021/05/04 08:06:25;;;;;;;2.17;2.07;;;9.30;99.90;;;;;;5047203;28;20187;-53
2021/05/04 08:08:51;;;;;;;5.73;3.40;;;9.30;99.90;;;;;;5039710;28;20731;-53
2021/05/04 08:11:18;;;;;;;3.53;2.10;;;9.40;99.90;;;;;;5066995;28;20195;-50
2021/05/04 08:13:45;;;;;;;2.97;2.20;;;9.40;99.90;;;;;;5042000;28;20250;-53
2021/05/04 08:16:13;;;;;;;9.00;4.90;;;9.40;99.90;;;;;;5039287;28;20941;-54
2021/05/04 08:18:41;;;;;;;3.60;2.43;;;9.40;99.90;;;;;;5039654;28;20211;-51
2021/05/04 08:21:09;;;;;;;4.00;2.47;;;9.40;99.90;;;;;;5027258;28;20205;-48
2021/05/04 08:23:35;;;;;;;4.10;3.20;;;9.40;99.90;;;;;;5042674;28;20268;-53
2021/05/04 08:26:01;;;;;;;2.53;2.00;;;9.50;99.90;;;;;;5035188;28;20640;-51
2021/05/04 08:28:28;;;;;;;2.43;2.17;;;9.60;99.90;;;;;;5040951;28;20217;-49
2021/05/04 08:30:54;;;;;;;2.80;2.10;;;9.70;99.90;;;;;;5067150;28;20856;-48
2021/05/04 08:33:20;;;;;;;2.70;1.83;;;9.80;99.90;;;;;;5070363;28;20286;-50
2021/05/04 08:35:47;;;;;;;2.07;1.97;;;9.90;99.90;;;;;;5044527;28;20223;-48
2021/05/04 08:38:13;;;;;;;2.80;2.60;;;10.00;99.90;;;;;;5052008;28;20321;-50
2021/05/04 08:40:40;;;;;;;3.07;1.80;;;10.10;99.90;;;;;;5045223;28;20206;-50
2021/05/04 08:43:06;;;;;;;1.73;1.60;;;10.10;99.90;;;;;;5071504;28;20228;-50
2021/05/04 08:45:34;;;;;;;2.03;1.93;;;10.10;99.90;;;;;;5046841;28;20699;-50
2021/05/04 08:48:01;;;;;;;3.77;2.17;;;10.10;99.90;;;;;;5050166;28;20965;-53
2021/05/04 08:50:29;;;;;;;1.63;1.53;;;10.20;99.90;;;;;;5046318;28;20214;-49
2021/05/04 08:52:55;;;;;;;2.13;1.90;;;10.30;99.90;;;;;;5025611;28;20355;-51
2021/05/04 08:55:23;;;;;;;3.73;2.37;;;10.30;99.90;;;;;;5050845;28;20223;-50
2021/05/04 08:57:49;;;;;;;2.20;2.00;;;10.30;99.90;;;;;;5049460;28;20214;-48
2021/05/04 09:00:16;;;;;;;2.27;1.50;;;10.30;99.90;;;;;;5059728;28;20207;-52
2021/05/04 09:03:00;;;;;;;2.50;1.70;;;10.30;99.90;;;;;;5047944;28;20899;-50
2021/05/04 09:05:37;;;;;;;3.70;2.43;;;10.40;99.90;;;;;;5053952;28;20635;-50
2021/05/04 09:08:07;;;;;;;4.37;3.20;;;10.40;99.90;;;;;;5021233;28;20203;-51
2021/05/04 09:10:38;;;;;;;1.97;1.87;;;10.40;99.90;;;;;;5041203;28;20274;-53
2021/05/04 09:13:16;;;;;;;3.30;1.50;;;10.40;99.90;;;;;;5062554;28;20737;-48
2021/05/04 09:16:11;;;;;;;2.43;2.23;;;10.50;99.90;;;;;;5059716;28;20210;-49
2021/05/04 09:21:32;;;;;;;1.77;1.67;;;10.50;99.90;;;;;;4988777;28;20231;-47
2021/05/04 09:23:59;;;;;;;1.80;1.70;;;10.50;99.90;;;;;;5037434;28;20290;-48
2021/05/04 09:26:32;;;;;;;1.70;1.60;;;10.60;99.90;;;;;;5047811;28;20245;-50
2021/05/04 09:28:58;;;;;;;2.73;1.87;;;10.60;99.90;;;;;;5044797;28;20195;-48
2021/05/04 09:31:26;;;;;;;2.80;2.30;;;10.60;99.90;;;;;;5037853;28;20251;-48
2021/05/04 09:33:54;;;;;;;5.23;3.30;;;10.40;99.90;;;;;;5053048;28;20234;-52
2021/05/04 09:36:44;;;;;;;3.17;2.87;;;10.20;99.90;;;;;;5052895;28;20210;-53
2021/05/04 09:39:13;;;;;;;2.58;2.38;;;10.10;99.90;;;;;;5028606;28;20435;-52
2021/05/04 09:41:39;;;;;;;2.10;2.00;;;10.20;99.90;;;;;;5037527;28;20184;-52
2021/05/04 09:44:06;;;;;;;3.67;2.53;;;10.00;99.90;;;;;;5036012;28;20689;-54
2021/05/04 09:46:46;;;;;;;2.50;1.73;;;9.90;99.90;;;;;;5054398;28;20305;-52
2021/05/04 09:49:30;;;;;;;3.07;2.07;;;9.80;99.90;;;;;;5045770;28;20195;-51
2021/05/04 09:52:15;;;;;;;15.80;3.73;;;9.80;99.90;;;;;;5023806;28;20246;-53
2021/05/04 09:54:41;;;;;;;3.03;2.27;;;9.80;99.90;;;;;;5048016;28;20202;-52
2021/05/04 09:57:29;;;;;;;2.27;2.07;;;9.70;99.90;;;;;;5046436;28;20675;-51
2021/05/04 09:59:55;;;;;;;4.17;2.77;;;9.80;99.90;;;;;;5047351;28;20267;-53
2021/05/04 10:02:22;;;;;;;3.10;2.00;;;9.80;99.90;;;;;;5048652;28;20704;-51
2021/05/04 10:04:51;;;;;;;1.57;1.47;;;9.80;99.90;;;;;;5045128;28;20561;-48
2021/05/04 10:07:17;;;;;;;3.47;2.13;;;9.80;99.90;;;;;;5043003;28;20223;-50
2021/05/04 10:09:44;;;;;;;2.03;1.80;;;9.80;99.90;;;;;;5034518;28;23053;-49
2021/05/04 10:12:12;;;;;;;2.30;1.50;;;9.90;99.90;;;;;;5045908;28;20269;-50
2021/05/04 10:14:40;;;;;;;6.13;2.73;;;9.90;99.90;;;;;;5035567;28;20256;-51
2021/05/04 10:17:08;;;;;;;1.90;1.80;;;10.00;99.90;;;;;;5046887;28;20583;-52
2021/05/04 10:19:37;;;;;;;6.00;3.27;;;10.00;99.90;;;;;;5035691;28;20288;-50
2021/05/04 10:22:04;;;;;;;2.17;1.57;;;10.10;99.90;;;;;;5047079;28;20223;-52
2021/05/04 10:24:32;;;;;;;2.20;2.00;;;10.10;99.90;;;;;;5036297;28;21621;-49
2021/05/04 10:27:00;;;;;;;2.27;1.50;;;10.20;99.90;;;;;;5049486;28;20211;-51
2021/05/04 10:29:28;;;;;;;4.83;2.77;;;10.20;99.90;;;;;;5033078;28;20210;-53
2021/05/04 10:31:54;;;;;;;5.00;3.00;;;10.30;99.90;;;;;;5043817;28;21025;-50
2021/05/04 10:34:32;;;;;;;3.10;2.63;;;10.30;99.90;;;;;;5043777;28;20226;-51
2021/05/04 10:36:59;;;;;;;2.93;2.20;;;10.30;99.90;;;;;;5046940;28;20186;-53
2021/05/04 10:39:38;;;;;;;3.70;2.90;;;10.30;99.90;;;;;;5037852;28;20521;-53
2021/05/04 10:42:05;;;;;;;4.83;2.60;;;10.30;99.90;;;;;;5038748;28;20226;-52
2021/05/04 10:44:47;;;;;;;4.10;2.70;;;10.20;99.90;;;;;;5024158;28;20571;-53
2021/05/04 10:47:48;;;;;;;4.77;3.07;;;10.10;99.90;;;;;;5040378;28;20198;-55
2021/05/04 10:50:16;;;;;;;4.27;3.87;;;9.90;99.90;;;;;;5041245;28;20286;-55
2021/05/04 10:53:00;;;;;;;4.10;3.40;;;9.80;99.90;;;;;;5036743;28;20238;-50
2021/05/04 10:55:43;;;;;;;9.97;3.67;;;9.70;99.90;;;;;;5028130;28;20230;-54
2021/05/04 10:58:16;;;;;;;12.20;5.93;;;9.60;99.90;;;;;;5022376;28;20200;-55
2021/05/04 11:00:53;;;;;;;4.50;3.90;;;9.70;99.90;;;;;;5030616;28;20351;-55
2021/05/04 11:03:55;;;;;;;4.20;3.90;;;9.80;99.90;;;;;;5029615;28;20238;-54
2021/05/04 11:06:41;;;;;;;9.30;6.30;;;10.10;99.90;;;;;;5050715;28;20285;-49
2021/05/04 11:09:09;;;;;;;5.70;4.67;;;10.40;99.90;;;;;;5050423;28;20199;-53
2021/05/04 11:11:41;;;;;;;4.90;4.10;;;10.60;99.90;;;;;;5028678;28;20341;-52
2021/05/04 11:14:08;;;;;;;4.93;4.13;;;11.00;99.90;;;;;;5042110;28;20203;-51
2021/05/04 11:16:36;;;;;;;6.43;4.50;;;11.30;99.90;;;;;;5031477;28;20969;-53
2021/05/04 11:19:05;;;;;;;4.40;3.90;;;11.50;99.90;;;;;;5047012;28;20214;-51
2021/05/04 11:21:39;;;;;;;2.87;2.67;;;11.60;99.90;;;;;;5037888;28;21033;-51
2021/05/04 11:24:07;;;;;;;4.53;3.00;;;11.70;99.90;;;;;;5031469;28;20191;-54
2021/05/04 11:26:50;;;;;;;4.80;2.97;;;11.80;99.90;;;;;;5026006;28;20202;-52
2021/05/04 11:29:17;;;;;;;4.70;2.40;;;11.80;99.90;;;;;;5029057;28;20200;-50
2021/05/04 11:31:45;;;;;;;4.53;3.00;;;11.70;99.90;;;;;;5016837;28;20210;-49
2021/05/04 11:34:37;;;;;;;4.57;2.53;;;11.70;99.90;;;;;;5043916;28;20215;-53
2021/05/04 11:37:04;;;;;;;2.33;2.13;;;11.70;99.90;;;;;;5035264;28;20731;-52
2021/05/04 11:39:31;;;;;;;2.13;1.30;;;11.80;99.90;;;;;;5030159;28;20899;-50
2021/05/04 11:41:59;;;;;;;2.00;1.80;;;11.80;99.90;;;;;;5039526;28;20310;-50
2021/05/04 11:44:27;;;;;;;1.93;1.70;;;11.90;99.90;;;;;;5027845;28;20211;-53
2021/05/04 11:46:54;;;;;;;3.20;2.50;;;12.00;99.90;;;;;;5013069;28;20221;-52
2021/05/04 11:49:28;;;;;;;1.77;1.67;;;12.00;99.90;;;;;;5028748;28;23013;-49
2021/05/04 11:52:09;;;;;;;1.73;1.57;;;12.10;99.90;;;;;;5031089;28;20222;-52
2021/05/04 11:54:36;;;;;;;2.93;2.20;;;12.10;99.90;;;;;;5050195;28;20358;-52
2021/05/04 11:57:03;;;;;;;2.60;1.30;;;12.10;99.90;;;;;;5025008;28;20192;-51
2021/05/04 11:59:30;;;;;;;1.23;1.13;;;12.10;99.90;;;;;;5039475;28;20217;-50
2021/05/04 12:01:56;;;;;;;1.73;1.63;;;12.00;99.90;;;;;;5029520;28;20238;-52
2021/05/04 12:04:47;;;;;;;3.20;1.70;;;11.90;99.90;;;;;;5057336;28;20191;-53
2021/05/04 12:07:29;;;;;;;2.30;1.37;;;11.80;99.90;;;;;;5044131;28;20199;-48
2021/05/04 12:09:56;;;;;;;1.40;1.30;;;11.70;99.90;;;;;;5034562;28;20271;-53
2021/05/04 12:12:22;;;;;;;2.63;1.63;;;11.60;99.90;;;;;;5038640;28;20220;-48
2021/05/04 12:14:58;;;;;;;2.70;1.97;;;11.50;99.90;;;;;;5036484;28;20664;-53
2021/05/04 12:17:26;;;;;;;4.23;1.70;;;11.50;99.90;;;;;;5035395;28;20213;-52
2021/05/04 12:19:52;;;;;;;3.17;1.40;;;11.40;99.90;;;;;;5058946;28;20229;-51
2021/05/04 12:22:19;;;;;;;3.13;2.10;;;11.40;99.90;;;;;;5057424;28;20286;-52
2021/05/04 12:24:46;;;;;;;2.33;2.13;;;11.30;99.90;;;;;;5039145;28;20207;-53
2021/05/04 12:27:12;;;;;;;4.03;1.77;;;11.30;99.90;;;;;;5041187;28;20204;-51
2021/05/04 12:29:38;;;;;;;2.53;1.90;;;11.30;99.90;;;;;;5031606;28;20598;-51
2021/05/04 12:32:05;;;;;;;2.40;2.20;;;11.30;99.90;;;;;;5038860;28;20966;-49
2021/05/04 12:34:31;;;;;;;2.80;2.60;;;11.30;99.90;;;;;;5032530;28;20222;-52
2021/05/04 12:36:59;;;;;;;2.50;2.30;;;11.30;99.90;;;;;;5058746;28;20253;-53
2021/05/04 12:39:28;;;;;;;4.03;2.07;;;11.20;99.90;;;;;;5042791;28;20198;-52
2021/05/04 12:41:57;;;;;;;2.80;2.60;;;11.20;99.90;;;;;;5056335;28;20191;-53
2021/05/04 12:44:26;;;;;;;4.67;3.63;;;11.20;99.90;;;;;;5041026;28;20278;-55
2021/05/04 12:46:53;;;;;;;6.73;3.87;;;11.20;99.90;;;;;;5035331;28;20203;-53
2021/05/04 12:49:20;;;;;;;7.80;4.50;;;11.10;99.90;;;;;;5036652;28;20342;-51
2021/05/04 12:51:48;;;;;;;4.93;3.70;;;11.10;99.90;;;;;;5047904;28;20199;-54
2021/05/04 12:54:17;;;;;;;4.50;3.33;;;11.00;99.90;;;;;;5049103;28;20194;-49
2021/05/04 12:56:45;;;;;;;4.13;3.53;;;11.00;99.90;;;;;;5037111;28;20215;-51
2021/05/04 12:59:12;;;;;;;6.10;4.87;;;10.90;99.90;;;;;;5030146;28;20204;-55